sensor_id;sensor_type;location;lat;lon;timestamp;P1;durP1;ratioP1;P2;durP2;ratioP2
2622;SDS011;1321;48.690;9.022;2023-05-17T00:02:00;6.90;;;6.60;;
2622;SDS011;1321;48.690;9.022;2023-05-17T00:04:28;7.43;;;6.83;;
2622;SDS011;1321;48.690;9.022;2023-05-17T00:06:56;6.70;;;6.40;;
2622;SDS011;1321;48.690;9.022;2023-05-17T00:09:24;7.53;;;7.23;;
2622;SDS011;1321;48.690;9.022;2023-05-17T00:11:54;6.67;;;6.57;;
2622;SDS011;1321;48.690;9.022;2023-05-17T00:14:22;7.13;;;6.80;;
2622;SDS011;1321;48.690;9.022;2023-05-17T00:16:51;7.60;;;7.20;;
2622;SDS011;1321;48.690;9.022;2023-05-17T00:19:19;7.47;;;7.17;;
2622;SDS011;1321;48.690;9.022;2023-05-17T00:21:48;6.83;;;6.73;;
2622;SDS011;1321;48.690;9.022;2023-05-17T00:24:16;6.93;;;6.73;;
2622;SDS011;1321;48.690;9.022;2023-05-17T00:26:44;7.33;;;7.10;;
2622;SDS011;1321;48.690;9.022;2023-05-17T00:29:12;7.60;;;7.33;;
2622;SDS011;1321;48.690;9.022;2023-05-17T00:31:41;7.77;;;7.37;;
2622;SDS011;1321;48.690;9.022;2023-05-17T00:34:10;7.37;;;7.07;;
2622;SDS011;1321;48.690;9.022;2023-05-17T00:36:38;7.33;;;7.23;;
2622;SDS011;1321;48.690;9.022;2023-05-17T00:39:06;7.67;;;7.30;;
2622;SDS011;1321;48.690;9.022;2023-05-17T00:41:35;8.20;;;7.83;;
2622;SDS011;1321;48.690;9.022;2023-05-17T00:44:03;7.70;;;7.30;;
2622;SDS011;1321;48.690;9.022;2023-05-17T00:46:31;7.50;;;7.20;;
2622;SDS011;1321;48.690;9.022;2023-05-17T00:49:00;7.60;;;7.30;;
2622;SDS011;1321;48.690;9.022;2023-05-17T00:51:30;7.77;;;7.47;;
2622;SDS011;1321;48.690;9.022;2023-05-17T00:53:59;7.10;;;6.80;;
2622;SDS011;1321;48.690;9.022;2023-05-17T00:56:27;7.50;;;7.10;;
2622;SDS011;1321;48.690;9.022;2023-05-17T00:59:04;7.37;;;7.10;;
2622;SDS011;1321;48.690;9.022;2023-05-17T01:01:49;7.27;;;7.07;;
2622;SDS011;1321;48.690;9.022;2023-05-17T01:04:19;8.57;;;7.73;;
2622;SDS011;1321;48.690;9.022;2023-05-17T01:07:19;8.03;;;7.70;;
2622;SDS011;1321;48.690;9.022;2023-05-17T01:10:02;7.70;;;7.30;;
2622;SDS011;1321;48.690;9.022;2023-05-17T01:12:48;7.50;;;7.30;;
2622;SDS011;1321;48.690;9.022;2023-05-17T01:15:32;8.03;;;7.70;;
2622;SDS011;1321;48.690;9.022;2023-05-17T01:18:18;7.40;;;7.20;;
2622;SDS011;1321;48.690;9.022;2023-05-17T01:20:52;7.67;;;7.27;;
2622;SDS011;1321;48.690;9.022;2023-05-17T01:23:34;7.20;;;7.00;;
2622;SDS011;1321;48.690;9.022;2023-05-17T01:26:09;7.80;;;7.50;;
2622;SDS011;1321;48.690;9.022;2023-05-17T01:28:45;8.03;;;7.50;;
2622;SDS011;1321;48.690;9.022;2023-05-17T01:31:18;7.63;;;7.43;;
2622;SDS011;1321;48.690;9.022;2023-05-17T01:33:47;7.70;;;7.50;;
2622;SDS011;1321;48.690;9.022;2023-05-17T01:36:16;7.73;;;7.40;;
2622;SDS011;1321;48.690;9.022;2023-05-17T01:38:51;7.83;;;7.53;;
2622;SDS011;1321;48.690;9.022;2023-05-17T01:41:40;8.67;;;8.10;;
2622;SDS011;1321;48.690;9.022;2023-05-17T01:44:46;8.00;;;7.70;;
2622;SDS011;1321;48.690;9.022;2023-05-17T01:47:44;7.73;;;7.57;;
2622;SDS011;1321;48.690;9.022;2023-05-17T01:50:30;8.03;;;7.83;;
2622;SDS011;1321;48.690;9.022;2023-05-17T01:53:24;8.53;;;8.13;;
2622;SDS011;1321;48.690;9.022;2023-05-17T01:56:06;7.83;;;7.63;;
2622;SDS011;1321;48.690;9.022;2023-05-17T01:58:44;7.80;;;7.60;;
2622;SDS011;1321;48.690;9.022;2023-05-17T02:01:33;7.80;;;7.53;;
2622;SDS011;1321;48.690;9.022;2023-05-17T02:04:34;8.27;;;7.93;;
2622;SDS011;1321;48.690;9.022;2023-05-17T02:07:21;8.20;;;7.93;;
2622;SDS011;1321;48.690;9.022;2023-05-17T02:11:28;7.93;;;7.63;;
2622;SDS011;1321;48.690;9.022;2023-05-17T02:13:41;8.10;;;7.63;;
2622;SDS011;1321;48.690;9.022;2023-05-17T02:16:21;8.67;;;8.07;;
2622;SDS011;1321;48.690;9.022;2023-05-17T02:19:34;8.20;;;7.80;;
2622;SDS011;1321;48.690;9.022;2023-05-17T02:22:30;7.63;;;7.50;;
2622;SDS011;1321;48.690;9.022;2023-05-17T02:25:14;8.20;;;7.80;;
2622;SDS011;1321;48.690;9.022;2023-05-17T02:28:13;8.33;;;7.93;;
2622;SDS011;1321;48.690;9.022;2023-05-17T02:31:07;8.00;;;7.80;;
2622;SDS011;1321;48.690;9.022;2023-05-17T02:37:12;8.67;;;8.27;;
2622;SDS011;1321;48.690;9.022;2023-05-17T02:39:45;8.00;;;7.80;;
2622;SDS011;1321;48.690;9.022;2023-05-17T02:42:15;8.17;;;7.97;;
2622;SDS011;1321;48.690;9.022;2023-05-17T02:44:44;8.13;;;7.87;;
2622;SDS011;1321;48.690;9.022;2023-05-17T02:47:14;8.20;;;7.80;;
2622;SDS011;1321;48.690;9.022;2023-05-17T02:49:58;9.37;;;8.97;;
2622;SDS011;1321;48.690;9.022;2023-05-17T02:52:38;9.10;;;8.70;;
2622;SDS011;1321;48.690;9.022;2023-05-17T02:55:12;9.63;;;8.37;;
2622;SDS011;1321;48.690;9.022;2023-05-17T02:57:58;8.83;;;8.53;;
2622;SDS011;1321;48.690;9.022;2023-05-17T03:00:45;8.93;;;8.33;;
2622;SDS011;1321;48.690;9.022;2023-05-17T03:03:21;9.40;;;8.90;;
2622;SDS011;1321;48.690;9.022;2023-05-17T03:06:10;8.90;;;8.60;;
2622;SDS011;1321;48.690;9.022;2023-05-17T03:08:58;9.30;;;8.80;;
2622;SDS011;1321;48.690;9.022;2023-05-17T03:11:39;8.77;;;8.30;;
2622;SDS011;1321;48.690;9.022;2023-05-17T03:14:29;8.30;;;8.10;;
2622;SDS011;1321;48.690;9.022;2023-05-17T03:20:29;8.10;;;7.90;;
2622;SDS011;1321;48.690;9.022;2023-05-17T03:23:20;8.90;;;8.60;;
2622;SDS011;1321;48.690;9.022;2023-05-17T03:26:11;8.40;;;8.07;;
2622;SDS011;1321;48.690;9.022;2023-05-17T03:29:01;8.50;;;8.20;;
2622;SDS011;1321;48.690;9.022;2023-05-17T03:31:45;8.40;;;8.10;;
2622;SDS011;1321;48.690;9.022;2023-05-17T03:34:48;8.57;;;8.37;;
2622;SDS011;1321;48.690;9.022;2023-05-17T03:37:42;8.40;;;8.20;;
2622;SDS011;1321;48.690;9.022;2023-05-17T03:40:56;8.90;;;8.50;;
2622;SDS011;1321;48.690;9.022;2023-05-17T03:43:45;9.73;;;9.23;;
2622;SDS011;1321;48.690;9.022;2023-05-17T03:46:28;9.30;;;8.93;;
2622;SDS011;1321;48.690;9.022;2023-05-17T03:49:23;9.20;;;8.70;;
2622;SDS011;1321;48.690;9.022;2023-05-17T03:52:39;8.20;;;8.00;;
2622;SDS011;1321;48.690;9.022;2023-05-17T03:55:28;9.30;;;8.90;;
2622;SDS011;1321;48.690;9.022;2023-05-17T03:58:24;9.67;;;9.43;;
2622;SDS011;1321;48.690;9.022;2023-05-17T04:01:29;9.60;;;9.20;;
2622;SDS011;1321;48.690;9.022;2023-05-17T04:04:09;10.40;;;9.80;;
2622;SDS011;1321;48.690;9.022;2023-05-17T04:10:16;8.87;;;8.60;;
2622;SDS011;1321;48.690;9.022;2023-05-17T04:13:43;9.70;;;9.00;;
2622;SDS011;1321;48.690;9.022;2023-05-17T04:17:05;10.10;;;9.50;;
2622;SDS011;1321;48.690;9.022;2023-05-17T04:20:16;9.27;;;8.77;;
2622;SDS011;1321;48.690;9.022;2023-05-17T04:26:43;9.60;;;8.90;;
2622;SDS011;1321;48.690;9.022;2023-05-17T04:29:34;9.70;;;9.23;;
2622;SDS011;1321;48.690;9.022;2023-05-17T04:32:26;9.70;;;9.17;;
2622;SDS011;1321;48.690;9.022;2023-05-17T04:35:41;9.97;;;9.53;;
2622;SDS011;1321;48.690;9.022;2023-05-17T04:39:17;9.60;;;9.30;;
2622;SDS011;1321;48.690;9.022;2023-05-17T04:42:22;10.13;;;9.73;;
2622;SDS011;1321;48.690;9.022;2023-05-17T04:45:36;9.97;;;9.67;;
2622;SDS011;1321;48.690;9.022;2023-05-17T04:48:37;10.17;;;9.87;;
2622;SDS011;1321;48.690;9.022;2023-05-17T04:55:08;11.17;;;10.43;;
2622;SDS011;1321;48.690;9.022;2023-05-17T04:58:14;11.13;;;10.67;;
2622;SDS011;1321;48.690;9.022;2023-05-17T05:01:01;10.80;;;10.30;;
2622;SDS011;1321;48.690;9.022;2023-05-17T05:04:12;11.60;;;11.20;;
2622;SDS011;1321;48.690;9.022;2023-05-17T05:06:50;10.50;;;10.30;;
2622;SDS011;1321;48.690;9.022;2023-05-17T05:09:19;11.47;;;10.87;;
2622;SDS011;1321;48.690;9.022;2023-05-17T05:12:03;10.83;;;10.53;;
2622;SDS011;1321;48.690;9.022;2023-05-17T05:15:33;11.23;;;10.70;;
2622;SDS011;1321;48.690;9.022;2023-05-17T05:18:17;10.90;;;10.50;;
2622;SDS011;1321;48.690;9.022;2023-05-17T05:21:11;11.40;;;11.10;;
2622;SDS011;1321;48.690;9.022;2023-05-17T05:24:11;10.73;;;10.30;;
2622;SDS011;1321;48.690;9.022;2023-05-17T05:26:42;10.73;;;10.40;;
2622;SDS011;1321;48.690;9.022;2023-05-17T05:30:03;11.10;;;10.60;;
2622;SDS011;1321;48.690;9.022;2023-05-17T05:37:13;11.57;;;11.13;;
2622;SDS011;1321;48.690;9.022;2023-05-17T05:40:48;11.53;;;11.20;;
2622;SDS011;1321;48.690;9.022;2023-05-17T05:43:35;11.20;;;10.90;;
2622;SDS011;1321;48.690;9.022;2023-05-17T05:46:41;11.87;;;11.47;;
2622;SDS011;1321;48.690;9.022;2023-05-17T05:49:36;11.60;;;11.00;;
2622;SDS011;1321;48.690;9.022;2023-05-17T05:56:00;11.60;;;11.10;;
2622;SDS011;1321;48.690;9.022;2023-05-17T05:59:28;11.10;;;10.80;;
2622;SDS011;1321;48.690;9.022;2023-05-17T06:02:50;11.77;;;11.27;;
2622;SDS011;1321;48.690;9.022;2023-05-17T06:05:50;11.67;;;11.27;;
2622;SDS011;1321;48.690;9.022;2023-05-17T06:08:52;12.40;;;11.70;;
2622;SDS011;1321;48.690;9.022;2023-05-17T06:11:54;11.50;;;11.10;;
2622;SDS011;1321;48.690;9.022;2023-05-17T06:15:00;12.37;;;11.97;;
2622;SDS011;1321;48.690;9.022;2023-05-17T06:17:45;11.97;;;11.57;;
2622;SDS011;1321;48.690;9.022;2023-05-17T06:20:53;12.23;;;11.63;;
2622;SDS011;1321;48.690;9.022;2023-05-17T06:24:01;11.70;;;11.10;;
2622;SDS011;1321;48.690;9.022;2023-05-17T06:26:53;11.90;;;11.30;;
2622;SDS011;1321;48.690;9.022;2023-05-17T06:30:38;11.83;;;11.10;;
2622;SDS011;1321;48.690;9.022;2023-05-17T06:33:42;12.43;;;11.80;;
2622;SDS011;1321;48.690;9.022;2023-05-17T06:36:36;12.37;;;11.37;;
2622;SDS011;1321;48.690;9.022;2023-05-17T06:43:12;12.37;;;11.47;;
2622;SDS011;1321;48.690;9.022;2023-05-17T06:45:58;12.80;;;12.10;;
2622;SDS011;1321;48.690;9.022;2023-05-17T06:49:08;12.67;;;12.27;;
2622;SDS011;1321;48.690;9.022;2023-05-17T06:51:51;12.43;;;11.90;;
2622;SDS011;1321;48.690;9.022;2023-05-17T06:55:11;13.33;;;12.43;;
2622;SDS011;1321;48.690;9.022;2023-05-17T07:01:24;13.50;;;12.70;;
2622;SDS011;1321;48.690;9.022;2023-05-17T07:04:13;12.50;;;12.07;;
2622;SDS011;1321;48.690;9.022;2023-05-17T07:06:55;13.37;;;12.63;;
2622;SDS011;1321;48.690;9.022;2023-05-17T07:09:47;12.57;;;12.07;;
2622;SDS011;1321;48.690;9.022;2023-05-17T07:13:09;12.80;;;12.40;;
2622;SDS011;1321;48.690;9.022;2023-05-17T07:16:57;13.37;;;12.67;;
2622;SDS011;1321;48.690;9.022;2023-05-17T07:20:06;14.00;;;13.30;;
2622;SDS011;1321;48.690;9.022;2023-05-17T07:23:14;13.17;;;12.67;;
2622;SDS011;1321;48.690;9.022;2023-05-17T07:26:18;13.73;;;13.03;;
2622;SDS011;1321;48.690;9.022;2023-05-17T07:29:34;14.03;;;13.33;;
2622;SDS011;1321;48.690;9.022;2023-05-17T07:32:28;13.93;;;13.20;;
2622;SDS011;1321;48.690;9.022;2023-05-17T07:35:17;14.20;;;13.60;;
2622;SDS011;1321;48.690;9.022;2023-05-17T07:38:08;13.37;;;12.90;;
2622;SDS011;1321;48.690;9.022;2023-05-17T07:41:30;14.50;;;13.83;;
2622;SDS011;1321;48.690;9.022;2023-05-17T07:44:47;14.50;;;13.80;;
2622;SDS011;1321;48.690;9.022;2023-05-17T07:58:03;15.07;;;13.97;;
2622;SDS011;1321;48.690;9.022;2023-05-17T08:00:56;16.73;;;15.43;;
2622;SDS011;1321;48.690;9.022;2023-05-17T08:03:46;14.97;;;14.37;;
2622;SDS011;1321;48.690;9.022;2023-05-17T08:06:39;15.33;;;14.63;;
2622;SDS011;1321;48.690;9.022;2023-05-17T08:09:41;14.50;;;13.90;;
2622;SDS011;1321;48.690;9.022;2023-05-17T08:12:44;15.80;;;14.90;;
2622;SDS011;1321;48.690;9.022;2023-05-17T08:15:58;15.97;;;15.37;;
2622;SDS011;1321;48.690;9.022;2023-05-17T08:19:03;15.97;;;15.27;;
2622;SDS011;1321;48.690;9.022;2023-05-17T08:26:00;15.10;;;14.60;;
2622;SDS011;1321;48.690;9.022;2023-05-17T08:28:57;15.27;;;14.57;;
2622;SDS011;1321;48.690;9.022;2023-05-17T08:32:22;15.30;;;14.67;;
2622;SDS011;1321;48.690;9.022;2023-05-17T08:35:36;16.87;;;15.43;;
2622;SDS011;1321;48.690;9.022;2023-05-17T08:38:51;15.00;;;14.30;;
2622;SDS011;1321;48.690;9.022;2023-05-17T08:42:09;14.90;;;14.30;;
2622;SDS011;1321;48.690;9.022;2023-05-17T08:45:17;16.53;;;15.50;;
2622;SDS011;1321;48.690;9.022;2023-05-17T08:48:29;14.27;;;13.57;;
2622;SDS011;1321;48.690;9.022;2023-05-17T08:51:36;15.33;;;14.53;;
2622;SDS011;1321;48.690;9.022;2023-05-17T08:54:30;14.73;;;14.13;;
2622;SDS011;1321;48.690;9.022;2023-05-17T08:57:42;14.97;;;14.37;;
2622;SDS011;1321;48.690;9.022;2023-05-17T09:00:49;15.30;;;14.63;;
2622;SDS011;1321;48.690;9.022;2023-05-17T09:03:39;14.93;;;14.23;;
2622;SDS011;1321;48.690;9.022;2023-05-17T09:06:58;14.70;;;14.10;;
2622;SDS011;1321;48.690;9.022;2023-05-17T09:10:02;17.93;;;16.37;;
2622;SDS011;1321;48.690;9.022;2023-05-17T09:13:22;15.73;;;14.73;;
2622;SDS011;1321;48.690;9.022;2023-05-17T09:15:52;15.03;;;14.23;;
2622;SDS011;1321;48.690;9.022;2023-05-17T09:18:30;15.23;;;14.20;;
2622;SDS011;1321;48.690;9.022;2023-05-17T09:21:03;15.23;;;14.63;;
2622;SDS011;1321;48.690;9.022;2023-05-17T09:23:32;15.60;;;15.00;;
2622;SDS011;1321;48.690;9.022;2023-05-17T09:26:03;14.90;;;14.10;;
2622;SDS011;1321;48.690;9.022;2023-05-17T09:28:37;14.87;;;14.07;;
2622;SDS011;1321;48.690;9.022;2023-05-17T09:31:09;15.37;;;14.70;;
2622;SDS011;1321;48.690;9.022;2023-05-17T09:45:20;14.17;;;13.30;;
2622;SDS011;1321;48.690;9.022;2023-05-17T09:47:52;14.70;;;13.90;;
2622;SDS011;1321;48.690;9.022;2023-05-17T09:50:21;14.97;;;14.03;;
2622;SDS011;1321;48.690;9.022;2023-05-17T09:52:51;13.30;;;12.80;;
2622;SDS011;1321;48.690;9.022;2023-05-17T09:55:23;12.60;;;12.20;;
2622;SDS011;1321;48.690;9.022;2023-05-17T09:57:54;14.17;;;13.50;;
2622;SDS011;1321;48.690;9.022;2023-05-17T10:00:30;16.00;;;15.00;;
2622;SDS011;1321;48.690;9.022;2023-05-17T10:03:02;24.27;;;19.23;;
2622;SDS011;1321;48.690;9.022;2023-05-17T10:05:32;14.57;;;13.70;;
2622;SDS011;1321;48.690;9.022;2023-05-17T10:08:01;14.00;;;13.33;;
2622;SDS011;1321;48.690;9.022;2023-05-17T10:10:31;15.37;;;14.33;;
2622;SDS011;1321;48.690;9.022;2023-05-17T10:13:00;14.23;;;13.63;;
2622;SDS011;1321;48.690;9.022;2023-05-17T10:15:31;20.50;;;15.10;;
2622;SDS011;1321;48.690;9.022;2023-05-17T10:18:05;18.63;;;17.03;;
2622;SDS011;1321;48.690;9.022;2023-05-17T10:20:41;13.47;;;12.97;;
2622;SDS011;1321;48.690;9.022;2023-05-17T10:23:12;16.77;;;15.67;;
2622;SDS011;1321;48.690;9.022;2023-05-17T10:25:44;13.70;;;13.00;;
2622;SDS011;1321;48.690;9.022;2023-05-17T10:28:16;13.90;;;13.20;;
2622;SDS011;1321;48.690;9.022;2023-05-17T10:30:49;12.90;;;12.30;;
2622;SDS011;1321;48.690;9.022;2023-05-17T10:33:21;12.60;;;12.17;;
2622;SDS011;1321;48.690;9.022;2023-05-17T10:35:50;13.77;;;13.13;;
2622;SDS011;1321;48.690;9.022;2023-05-17T10:38:23;13.10;;;12.60;;
2622;SDS011;1321;48.690;9.022;2023-05-17T10:41:06;13.87;;;12.93;;
2622;SDS011;1321;48.690;9.022;2023-05-17T10:43:39;12.57;;;12.07;;
2622;SDS011;1321;48.690;9.022;2023-05-17T10:52:14;13.60;;;12.80;;
2622;SDS011;1321;48.690;9.022;2023-05-17T10:54:45;13.50;;;12.80;;
2622;SDS011;1321;48.690;9.022;2023-05-17T10:57:18;13.33;;;12.73;;
2622;SDS011;1321;48.690;9.022;2023-05-17T10:59:58;14.57;;;13.30;;
2622;SDS011;1321;48.690;9.022;2023-05-17T11:02:29;13.40;;;12.53;;
2622;SDS011;1321;48.690;9.022;2023-05-17T11:05:00;12.33;;;11.93;;
2622;SDS011;1321;48.690;9.022;2023-05-17T11:07:29;13.50;;;12.80;;
2622;SDS011;1321;48.690;9.022;2023-05-17T11:10:03;12.20;;;11.53;;
2622;SDS011;1321;48.690;9.022;2023-05-17T11:12:36;12.60;;;12.00;;
2622;SDS011;1321;48.690;9.022;2023-05-17T11:25:37;12.83;;;12.00;;
2622;SDS011;1321;48.690;9.022;2023-05-17T11:28:06;12.07;;;11.57;;
2622;SDS011;1321;48.690;9.022;2023-05-17T11:30:39;11.97;;;11.47;;
2622;SDS011;1321;48.690;9.022;2023-05-17T11:33:13;10.97;;;10.50;;
2622;SDS011;1321;48.690;9.022;2023-05-17T11:36:01;12.33;;;11.73;;
2622;SDS011;1321;48.690;9.022;2023-05-17T11:38:32;11.83;;;11.17;;
2622;SDS011;1321;48.690;9.022;2023-05-17T11:43:49;12.30;;;11.50;;
2622;SDS011;1321;48.690;9.022;2023-05-17T11:46:19;11.97;;;11.47;;
2622;SDS011;1321;48.690;9.022;2023-05-17T11:48:51;11.00;;;10.57;;
2622;SDS011;1321;48.690;9.022;2023-05-17T11:51:20;11.77;;;11.30;;
2622;SDS011;1321;48.690;9.022;2023-05-17T11:53:50;12.13;;;11.33;;
2622;SDS011;1321;48.690;9.022;2023-05-17T11:56:23;11.40;;;11.00;;
2622;SDS011;1321;48.690;9.022;2023-05-17T11:59:08;11.43;;;11.03;;
2622;SDS011;1321;48.690;9.022;2023-05-17T12:01:42;12.00;;;11.50;;
2622;SDS011;1321;48.690;9.022;2023-05-17T12:04:12;11.70;;;11.00;;
2622;SDS011;1321;48.690;9.022;2023-05-17T12:06:40;12.70;;;11.90;;
2622;SDS011;1321;48.690;9.022;2023-05-17T12:09:10;12.27;;;11.50;;
2622;SDS011;1321;48.690;9.022;2023-05-17T12:11:44;13.83;;;12.67;;
2622;SDS011;1321;48.690;9.022;2023-05-17T12:14:14;12.03;;;11.33;;
2622;SDS011;1321;48.690;9.022;2023-05-17T12:16:44;10.83;;;10.40;;
2622;SDS011;1321;48.690;9.022;2023-05-17T12:19:18;11.77;;;11.00;;
2622;SDS011;1321;48.690;9.022;2023-05-17T12:21:48;12.13;;;11.43;;
2622;SDS011;1321;48.690;9.022;2023-05-17T12:24:18;11.13;;;10.50;;
2622;SDS011;1321;48.690;9.022;2023-05-17T12:26:57;11.10;;;10.50;;
2622;SDS011;1321;48.690;9.022;2023-05-17T12:30:12;11.03;;;10.57;;
2622;SDS011;1321;48.690;9.022;2023-05-17T12:33:14;11.40;;;10.67;;
2622;SDS011;1321;48.690;9.022;2023-05-17T12:36:17;11.70;;;11.07;;
2622;SDS011;1321;48.690;9.022;2023-05-17T12:39:35;11.60;;;10.90;;
2622;SDS011;1321;48.690;9.022;2023-05-17T12:46:05;11.20;;;10.40;;
2622;SDS011;1321;48.690;9.022;2023-05-17T12:52:22;10.77;;;10.37;;
2622;SDS011;1321;48.690;9.022;2023-05-17T12:55:30;11.33;;;10.43;;
2622;SDS011;1321;48.690;9.022;2023-05-17T12:58:38;11.13;;;10.10;;
2622;SDS011;1321;48.690;9.022;2023-05-17T13:01:59;10.50;;;9.80;;
2622;SDS011;1321;48.690;9.022;2023-05-17T13:05:21;10.80;;;10.20;;
2622;SDS011;1321;48.690;9.022;2023-05-17T13:08:42;10.50;;;9.90;;
2622;SDS011;1321;48.690;9.022;2023-05-17T13:11:49;10.43;;;9.93;;
2622;SDS011;1321;48.690;9.022;2023-05-17T13:17:25;11.30;;;10.60;;
2622;SDS011;1321;48.690;9.022;2023-05-17T13:20:22;11.03;;;10.43;;
2622;SDS011;1321;48.690;9.022;2023-05-17T13:23:29;10.57;;;10.17;;
2622;SDS011;1321;48.690;9.022;2023-05-17T13:26:13;11.37;;;10.73;;
2622;SDS011;1321;48.690;9.022;2023-05-17T13:29:31;10.80;;;10.37;;
2622;SDS011;1321;48.690;9.022;2023-05-17T13:32:20;10.50;;;10.00;;
2622;SDS011;1321;48.690;9.022;2023-05-17T13:38:04;10.53;;;10.10;;
2622;SDS011;1321;48.690;9.022;2023-05-17T13:40:59;10.70;;;10.30;;
2622;SDS011;1321;48.690;9.022;2023-05-17T13:43:58;10.30;;;9.83;;
2622;SDS011;1321;48.690;9.022;2023-05-17T13:46:41;10.93;;;10.40;;
2622;SDS011;1321;48.690;9.022;2023-05-17T13:49:33;10.70;;;10.20;;
2622;SDS011;1321;48.690;9.022;2023-05-17T13:52:20;11.00;;;10.43;;
2622;SDS011;1321;48.690;9.022;2023-05-17T13:55:16;12.40;;;11.60;;
2622;SDS011;1321;48.690;9.022;2023-05-17T13:58:13;10.67;;;10.20;;
2622;SDS011;1321;48.690;9.022;2023-05-17T14:01:08;11.20;;;10.40;;
2622;SDS011;1321;48.690;9.022;2023-05-17T14:11:49;11.80;;;11.20;;
2622;SDS011;1321;48.690;9.022;2023-05-17T14:18:08;11.50;;;10.90;;
2622;SDS011;1321;48.690;9.022;2023-05-17T14:24:26;11.67;;;11.27;;
2622;SDS011;1321;48.690;9.022;2023-05-17T14:28:03;13.00;;;12.20;;
2622;SDS011;1321;48.690;9.022;2023-05-17T14:35:08;11.73;;;11.13;;
2622;SDS011;1321;48.690;9.022;2023-05-17T14:38:03;12.50;;;11.53;;
2622;SDS011;1321;48.690;9.022;2023-05-17T14:41:14;12.73;;;12.10;;
2622;SDS011;1321;48.690;9.022;2023-05-17T14:48:49;13.10;;;12.40;;
2622;SDS011;1321;48.690;9.022;2023-05-17T14:52:15;11.90;;;11.30;;
2622;SDS011;1321;48.690;9.022;2023-05-17T14:55:52;12.73;;;12.00;;
2622;SDS011;1321;48.690;9.022;2023-05-17T15:02:31;13.03;;;12.43;;
2622;SDS011;1321;48.690;9.022;2023-05-17T15:05:16;13.20;;;12.40;;
2622;SDS011;1321;48.690;9.022;2023-05-17T15:08:17;11.97;;;11.47;;
2622;SDS011;1321;48.690;9.022;2023-05-17T15:11:31;12.47;;;11.77;;
2622;SDS011;1321;48.690;9.022;2023-05-17T15:14:28;12.30;;;11.60;;
2622;SDS011;1321;48.690;9.022;2023-05-17T15:17:43;12.53;;;11.70;;
2622;SDS011;1321;48.690;9.022;2023-05-17T15:20:39;11.80;;;11.30;;
2622;SDS011;1321;48.690;9.022;2023-05-17T15:23:15;14.23;;;13.13;;
2622;SDS011;1321;48.690;9.022;2023-05-17T15:25:44;13.67;;;12.27;;
2622;SDS011;1321;48.690;9.022;2023-05-17T15:28:14;37.13;;;16.57;;
2622;SDS011;1321;48.690;9.022;2023-05-17T15:30:45;13.37;;;12.20;;
2622;SDS011;1321;48.690;9.022;2023-05-17T15:33:14;12.47;;;11.80;;
2622;SDS011;1321;48.690;9.022;2023-05-17T15:35:42;11.90;;;11.20;;
2622;SDS011;1321;48.690;9.022;2023-05-17T15:38:11;12.87;;;12.27;;
2622;SDS011;1321;48.690;9.022;2023-05-17T15:40:40;11.80;;;11.30;;
2622;SDS011;1321;48.690;9.022;2023-05-17T15:43:09;13.80;;;12.67;;
2622;SDS011;1321;48.690;9.022;2023-05-17T15:48:31;12.93;;;12.33;;
2622;SDS011;1321;48.690;9.022;2023-05-17T15:51:12;12.27;;;11.50;;
2622;SDS011;1321;48.690;9.022;2023-05-17T15:53:41;12.73;;;12.13;;
2622;SDS011;1321;48.690;9.022;2023-05-17T15:56:09;12.47;;;12.00;;
2622;SDS011;1321;48.690;9.022;2023-05-17T15:58:38;13.20;;;12.50;;
2622;SDS011;1321;48.690;9.022;2023-05-17T16:01:08;12.37;;;11.77;;
2622;SDS011;1321;48.690;9.022;2023-05-17T16:04:11;12.90;;;12.07;;
2622;SDS011;1321;48.690;9.022;2023-05-17T16:06:35;13.87;;;12.93;;
2622;SDS011;1321;48.690;9.022;2023-05-17T16:09:08;12.23;;;11.73;;
2622;SDS011;1321;48.690;9.022;2023-05-17T16:11:37;13.20;;;12.40;;
2622;SDS011;1321;48.690;9.022;2023-05-17T16:14:05;13.33;;;12.73;;
2622;SDS011;1321;48.690;9.022;2023-05-17T16:16:36;13.70;;;13.20;;
2622;SDS011;1321;48.690;9.022;2023-05-17T16:19:05;12.50;;;12.10;;
2622;SDS011;1321;48.690;9.022;2023-05-17T16:21:35;12.87;;;12.27;;
2622;SDS011;1321;48.690;9.022;2023-05-17T16:24:07;12.43;;;11.93;;
2622;SDS011;1321;48.690;9.022;2023-05-17T16:26:40;13.40;;;12.70;;
2622;SDS011;1321;48.690;9.022;2023-05-17T16:29:10;14.93;;;13.93;;
2622;SDS011;1321;48.690;9.022;2023-05-17T16:31:50;12.27;;;11.77;;
2622;SDS011;1321;48.690;9.022;2023-05-17T16:34:22;12.27;;;11.77;;
2622;SDS011;1321;48.690;9.022;2023-05-17T16:37:10;12.60;;;12.10;;
2622;SDS011;1321;48.690;9.022;2023-05-17T16:44:05;11.97;;;11.23;;
2622;SDS011;1321;48.690;9.022;2023-05-17T16:47:29;12.53;;;11.57;;
2622;SDS011;1321;48.690;9.022;2023-05-17T16:50:47;12.23;;;11.70;;
2622;SDS011;1321;48.690;9.022;2023-05-17T16:54:02;12.50;;;11.70;;
2622;SDS011;1321;48.690;9.022;2023-05-17T16:57:17;12.57;;;12.00;;
2622;SDS011;1321;48.690;9.022;2023-05-17T17:00:33;12.80;;;11.70;;
2622;SDS011;1321;48.690;9.022;2023-05-17T17:07:08;12.23;;;11.63;;
2622;SDS011;1321;48.690;9.022;2023-05-17T17:10:21;13.30;;;12.20;;
2622;SDS011;1321;48.690;9.022;2023-05-17T17:16:38;12.90;;;12.10;;
2622;SDS011;1321;48.690;9.022;2023-05-17T17:20:09;12.30;;;11.60;;
2622;SDS011;1321;48.690;9.022;2023-05-17T17:27:37;12.50;;;11.60;;
2622;SDS011;1321;48.690;9.022;2023-05-17T17:31:26;11.97;;;11.33;;
2622;SDS011;1321;48.690;9.022;2023-05-17T17:34:53;11.40;;;10.87;;
2622;SDS011;1321;48.690;9.022;2023-05-17T17:38:30;11.50;;;11.00;;
2622;SDS011;1321;48.690;9.022;2023-05-17T17:45:10;10.83;;;10.30;;
2622;SDS011;1321;48.690;9.022;2023-05-17T17:48:56;13.47;;;12.63;;
2622;SDS011;1321;48.690;9.022;2023-05-17T17:52:28;12.00;;;11.30;;
2622;SDS011;1321;48.690;9.022;2023-05-17T17:55:45;10.70;;;10.30;;
2622;SDS011;1321;48.690;9.022;2023-05-17T17:59:18;11.77;;;11.10;;
2622;SDS011;1321;48.690;9.022;2023-05-17T18:18:10;11.60;;;10.80;;
2622;SDS011;1321;48.690;9.022;2023-05-17T18:21:12;10.73;;;9.93;;
2622;SDS011;1321;48.690;9.022;2023-05-17T18:27:58;10.90;;;10.20;;
2622;SDS011;1321;48.690;9.022;2023-05-17T18:31:17;11.43;;;10.63;;
2622;SDS011;1321;48.690;9.022;2023-05-17T18:34:44;10.50;;;10.00;;
2622;SDS011;1321;48.690;9.022;2023-05-17T18:38:07;9.60;;;9.10;;
2622;SDS011;1321;48.690;9.022;2023-05-17T18:41:57;10.27;;;9.40;;
2622;SDS011;1321;48.690;9.022;2023-05-17T18:46:51;9.87;;;9.47;;
2622;SDS011;1321;48.690;9.022;2023-05-17T18:49:37;9.93;;;9.33;;
2622;SDS011;1321;48.690;9.022;2023-05-17T18:54:32;9.97;;;9.30;;
2622;SDS011;1321;48.690;9.022;2023-05-17T18:56:09;8.77;;;8.27;;
2622;SDS011;1321;48.690;9.022;2023-05-17T18:59:31;9.33;;;8.73;;
2622;SDS011;1321;48.690;9.022;2023-05-17T19:02:46;9.17;;;8.47;;
2622;SDS011;1321;48.690;9.022;2023-05-17T19:05:37;9.20;;;8.70;;
2622;SDS011;1321;48.690;9.022;2023-05-17T19:08:47;9.27;;;8.77;;
2622;SDS011;1321;48.690;9.022;2023-05-17T19:11:30;9.27;;;8.70;;
2622;SDS011;1321;48.690;9.022;2023-05-17T19:14:15;9.63;;;9.13;;
2622;SDS011;1321;48.690;9.022;2023-05-17T19:17:13;9.37;;;8.77;;
2622;SDS011;1321;48.690;9.022;2023-05-17T19:20:08;9.50;;;9.10;;
2622;SDS011;1321;48.690;9.022;2023-05-17T19:23:05;9.70;;;9.20;;
2622;SDS011;1321;48.690;9.022;2023-05-17T19:26:12;9.10;;;8.50;;
2622;SDS011;1321;48.690;9.022;2023-05-17T19:29:06;9.47;;;8.87;;
2622;SDS011;1321;48.690;9.022;2023-05-17T19:31:48;9.20;;;8.70;;
2622;SDS011;1321;48.690;9.022;2023-05-17T19:34:56;9.50;;;9.00;;
2622;SDS011;1321;48.690;9.022;2023-05-17T19:37:42;9.07;;;8.50;;
2622;SDS011;1321;48.690;9.022;2023-05-17T19:40:37;9.03;;;8.63;;
2622;SDS011;1321;48.690;9.022;2023-05-17T19:43:27;9.70;;;9.00;;
2622;SDS011;1321;48.690;9.022;2023-05-17T19:46:11;9.10;;;8.50;;
2622;SDS011;1321;48.690;9.022;2023-05-17T19:48:57;8.80;;;8.40;;
2622;SDS011;1321;48.690;9.022;2023-05-17T19:51:56;10.57;;;9.93;;
2622;SDS011;1321;48.690;9.022;2023-05-17T19:54:59;9.37;;;8.67;;
2622;SDS011;1321;48.690;9.022;2023-05-17T19:57:43;9.00;;;8.60;;
2622;SDS011;1321;48.690;9.022;2023-05-17T20:00:35;9.47;;;8.80;;
2622;SDS011;1321;48.690;9.022;2023-05-17T20:03:14;9.53;;;9.03;;